Time;durP1;ratioP1;P1;durP2;ratioP2;P2;SDS_P1;SDS_P2;PMS_P1;PMS_P2;Temp;Humidity;BMP_temperature;BMP_pressure;BME280_temperature;BME280_humidity;BME280_pressure;Samples;Min_cycle;Max_cycle;Signal;HPM_P1;HPM_P2
2023/09/25 00:00:40;;;;;;;4.47;2.92;;;;;;;5.82;100.00;99486.31;6102014;19;20501;-73
2023/09/25 00:02:40;;;;;;;3.88;2.92;;;;;;;5.83;100.00;99491.50;6103297;19;20048;-73
2023/09/25 00:04:41;;;;;;;4.03;2.97;;;;;;;5.85;100.00;99491.16;6103347;19;20010;-73
2023/09/25 00:06:41;;;;;;;7.68;3.35;;;;;;;5.85;100.00;99483.72;6102949;19;20010;-73
2023/09/25 00:08:41;;;;;;;6.25;3.10;;;;;;;5.81;100.00;99479.22;6101690;19;20030;-73
2023/09/25 00:10:42;;;;;;;7.20;3.95;;;;;;;5.72;100.00;99483.91;6102103;19;20040;-73
2023/09/25 00:12:43;;;;;;;4.15;3.00;;;;;;;5.66;100.00;99479.69;6103511;19;20011;-73
2023/09/25 00:14:43;;;;;;;4.45;3.15;;;;;;;5.59;100.00;99480.16;6103129;19;20027;-73
2023/09/25 00:16:43;;;;;;;3.85;3.00;;;;;;;5.59;100.00;99486.44;6102528;19;20038;-73
2023/09/25 00:18:44;;;;;;;7.07;3.67;;;;;;;5.64;100.00;99477.25;6101426;19;20007;-73
2023/09/25 00:20:44;;;;;;;3.63;2.85;;;;;;;5.63;100.00;99479.22;6101381;19;20011;-73
2023/09/25 00:22:44;;;;;;;4.53;3.00;;;;;;;5.64;100.00;99475.31;6101568;19;20281;-73
2023/09/25 00:24:45;;;;;;;6.53;3.33;;;;;;;5.66;100.00;99468.69;6102531;19;20011;-73
2023/09/25 00:26:46;;;;;;;4.35;2.92;;;;;;;5.69;100.00;99476.28;6100258;19;20064;-73
2023/09/25 00:28:46;;;;;;;3.72;2.88;;;;;;;5.70;100.00;99477.91;6102073;19;20048;-73
2023/09/25 00:30:46;;;;;;;6.30;3.10;;;;;;;5.73;100.00;99469.84;6100929;19;20498;-73
2023/09/25 00:32:50;;;;;;;4.82;3.38;;;;;;;5.77;100.00;99467.25;6102419;19;20454;-73
2023/09/25 00:34:50;;;;;;;4.30;3.22;;;;;;;5.82;100.00;99469.84;6102070;19;20066;-73
2023/09/25 00:36:51;;;;;;;5.45;3.40;;;;;;;5.82;100.00;99459.66;6101894;19;20027;-73
2023/09/25 00:38:51;;;;;;;4.43;3.28;;;;;;;5.84;100.00;99467.56;6101896;19;20029;-73
2023/09/25 00:40:52;;;;;;;5.38;3.47;;;;;;;5.85;100.00;99459.00;6100477;19;20478;-73
2023/09/25 00:42:54;;;;;;;6.18;3.88;;;;;;;5.84;100.00;99462.09;6101996;19;20361;-73
2023/09/25 00:44:54;;;;;;;8.27;3.60;;;;;;;5.83;100.00;99452.22;6099620;19;20010;-73
2023/09/25 00:46:54;;;;;;;4.00;3.40;;;;;;;5.85;100.00;99453.53;6102223;19;20119;-73
2023/09/25 00:48:55;;;;;;;4.70;3.83;;;;;;;5.85;100.00;99452.72;6100998;19;20007;-73
2023/09/25 00:50:59;;;;;;;5.22;3.03;;;;;;;5.83;100.00;99446.75;6104749;19;20011;-73
2023/09/25 00:53:03;;;;;;;5.40;3.28;;;;;;;5.82;100.00;99445.94;6106440;19;20014;-73
2023/09/25 00:55:04;;;;;;;6.57;3.53;;;;;;;5.84;100.00;99451.09;6108957;19;20013;-73
2023/09/25 00:57:05;;;;;;;4.72;3.38;;;;;;;5.83;100.00;99444.00;6107539;19;20018;-73
2023/09/25 00:59:06;;;;;;;4.82;3.22;;;;;;;5.79;100.00;99438.34;6107134;19;20347;-73
2023/09/25 01:01:11;;;;;;;5.43;3.40;;;;;;;5.77;100.00;99445.28;6108061;19;20007;-73
2023/09/25 01:03:12;;;;;;;3.60;3.25;;;;;;;5.75;100.00;99448.34;6108492;19;20147;-73
2023/09/25 01:05:13;;;;;;;4.63;3.40;;;;;;;5.75;100.00;99447.53;6108687;19;20498;-73
2023/09/25 01:07:13;;;;;;;4.28;3.42;;;;;;;5.77;100.00;99450.78;6107578;19;20019;-73
2023/09/25 01:09:14;;;;;;;4.93;2.95;;;;;;;5.76;100.00;99446.41;6105987;19;20002;-73
2023/09/25 01:11:15;;;;;;;5.57;3.08;;;;;;;5.74;100.00;99446.75;6108343;19;20293;-73
2023/09/25 01:13:15;;;;;;;4.10;3.15;;;;;;;5.77;100.00;99448.03;6107693;19;20007;-73
2023/09/25 01:15:16;;;;;;;4.63;3.10;;;;;;;5.79;100.00;99452.09;6108118;19;20434;-73
2023/09/25 01:17:16;;;;;;;4.35;3.10;;;;;;;5.78;100.00;99441.41;6108470;19;20013;-73
2023/09/25 01:19:16;;;;;;;6.53;3.35;;;;;;;5.76;100.00;99446.41;6105603;19;20007;-73
2023/09/25 01:21:17;;;;;;;4.22;3.40;;;;;;;5.71;100.00;99444.66;6106794;19;20014;-73
2023/09/25 01:23:18;;;;;;;3.90;3.22;;;;;;;5.69;100.00;99446.88;6108086;19;20401;-73
2023/09/25 01:25:20;;;;;;;4.40;3.65;;;;;;;5.69;100.00;99457.06;6107881;19;20029;-73
2023/09/25 01:27:21;;;;;;;5.13;3.50;;;;;;;5.66;100.00;99450.28;6107710;19;20356;-73
2023/09/25 01:29:22;;;;;;;4.50;3.10;;;;;;;5.63;100.00;99457.25;6106258;19;20263;-73
2023/09/25 01:31:22;;;;;;;4.10;2.72;;;;;;;5.62;100.00;99455.59;6107866;19;20002;-73
2023/09/25 01:33:23;;;;;;;4.82;2.92;;;;;;;5.62;100.00;99461.09;6107054;19;20010;-72
2023/09/25 01:35:25;;;;;;;5.30;3.20;;;;;;;5.62;100.00;99465.78;6106859;19;20006;-73
2023/09/25 01:37:25;;;;;;;3.95;3.13;;;;;;;5.61;100.00;99459.47;6108488;19;20013;-73
2023/09/25 01:39:26;;;;;;;5.75;3.28;;;;;;;5.55;100.00;99455.28;6111044;19;20082;-73
2023/09/25 01:41:26;;;;;;;4.78;3.35;;;;;;;5.53;100.00;99456.72;6112842;19;20021;-73
2023/09/25 01:43:26;;;;;;;3.90;3.00;;;;;;;5.51;100.00;99457.03;6112069;19;20011;-73
2023/09/25 01:45:27;;;;;;;4.22;3.22;;;;;;;5.47;100.00;99444.31;6110934;19;20015;-73
2023/09/25 01:47:27;;;;;;;4.78;3.50;;;;;;;5.50;100.00;99449.13;6112589;19;20007;-73
2023/09/25 01:49:30;;;;;;;7.28;3.45;;;;;;;5.53;100.00;99445.75;6110411;19;20038;-73
2023/09/25 01:51:30;;;;;;;;;;;;;;;5.54;100.00;99448.16;6113005;19;20010;-72
2023/09/25 01:53:30;;;;;;;5.82;2.88;;;;;;;5.52;100.00;99444.94;6113352;19;19927;-73
2023/09/25 01:55:35;;;;;;;4.10;2.97;;;;;;;5.51;100.00;99443.31;6112329;19;20011;-73
2023/09/25 01:57:35;;;;;;;4.47;3.08;;;;;;;5.51;100.00;99448.81;6112564;19;20014;-73
2023/09/25 01:59:36;;;;;;;5.10;3.47;;;;;;;5.48;100.00;99449.47;6110740;19;20323;-72
2023/09/25 02:01:36;;;;;;;4.35;3.45;;;;;;;5.45;100.00;99444.59;6112208;19;20003;-72
2023/09/25 02:03:36;;;;;;;6.32;3.45;;;;;;;5.48;100.00;99438.47;6113071;19;20027;-72
2023/09/25 02:05:42;;;;;;;4.50;3.55;;;;;;;5.49;100.00;99439.28;6111865;19;20014;-72
2023/09/25 02:07:43;;;;;;;4.93;3.20;;;;;;;5.48;100.00;99443.97;6112394;19;20011;-73
2023/09/25 02:09:45;;;;;;;7.95;4.07;;;;;;;5.42;100.00;99437.00;6111552;19;20066;-73
2023/09/25 02:11:45;;;;;;;5.78;3.47;;;;;;;5.41;100.00;99437.34;6112406;19;20026;-72
2023/09/25 02:13:45;;;;;;;5.50;3.33;;;;;;;5.34;100.00;99440.56;6112520;19;20033;-73
2023/09/25 02:15:47;;;;;;;5.57;3.75;;;;;;;5.29;100.00;99435.19;6112768;19;20343;-72
2023/09/25 02:17:47;;;;;;;5.18;3.42;;;;;;;5.25;100.00;99436.97;6112466;19;20011;-72
2023/09/25 02:19:48;;;;;;;6.28;3.65;;;;;;;5.23;100.00;99431.00;6109736;19;20088;-72
2023/09/25 02:21:48;;;;;;;5.03;3.28;;;;;;;5.25;100.00;99442.47;6112168;19;20007;-72
2023/09/25 02:23:48;;;;;;;5.35;3.67;;;;;;;5.26;100.00;99442.16;6112332;19;20013;-72
2023/09/25 02:25:49;;;;;;;4.72;3.15;;;;;;;5.22;100.00;99443.13;6111676;19;20446;-73
2023/09/25 02:27:49;;;;;;;5.65;3.45;;;;;;;5.22;100.00;99437.63;6111918;19;20473;-73
2023/09/25 02:29:49;;;;;;;6.70;3.58;;;;;;;5.22;100.00;99435.69;6110398;19;20007;-72
2023/09/25 02:31:50;;;;;;;5.40;3.80;;;;;;;5.18;100.00;99436.63;6111397;19;20009;-73
2023/09/25 02:33:50;;;;;;;4.88;3.58;;;;;;;5.16;100.00;99436.16;6111078;19;20066;-72
2023/09/25 02:35:51;;;;;;;4.93;3.50;;;;;;;5.10;100.00;99438.22;6112163;19;20510;-72
2023/09/25 02:37:51;;;;;;;4.93;4.03;;;;;;;5.08;100.00;99435.00;6111322;19;20023;-73
2023/09/25 02:39:51;;;;;;;5.10;3.58;;;;;;;5.12;100.00;99433.22;6110211;19;20466;-72
2023/09/25 02:41:52;;;;;;;3.90;3.38;;;;;;;5.11;100.00;99434.34;6112179;19;20124;-72
2023/09/25 02:43:52;;;;;;;5.28;3.78;;;;;;;5.13;100.00;99431.28;6108250;19;20007;-72
2023/09/25 02:45:53;;;;;;;4.60;3.30;;;;;;;5.10;100.00;99429.19;6111568;19;20467;-72
2023/09/25 02:47:54;;;;;;;6.38;3.78;;;;;;;5.07;100.00;99439.69;6110456;19;20021;-72
2023/09/25 02:49:55;;;;;;;5.03;3.53;;;;;;;4.97;100.00;99433.69;6108048;19;20011;-72
2023/09/25 02:51:55;;;;;;;5.40;3.63;;;;;;;4.95;100.00;99438.66;6111503;19;20086;-73
2023/09/25 02:53:55;;;;;;;5.00;3.30;;;;;;;4.89;100.00;99429.78;6110292;19;20062;-72
2023/09/25 02:55:56;;;;;;;4.97;3.33;;;;;;;4.90;100.00;99423.19;6112014;19;20272;-72
2023/09/25 02:57:56;;;;;;;8.05;4.07;;;;;;;4.82;100.00;99421.22;6111617;19;20003;-72
2023/09/25 02:59:56;;;;;;;4.47;3.60;;;;;;;4.78;100.00;99425.69;6108623;19;20292;-72
2023/09/25 03:01:57;;;;;;;5.30;3.45;;;;;;;4.73;100.00;99426.66;6111042;19;20038;-72
2023/09/25 03:03:57;;;;;;;5.20;3.92;;;;;;;4.71;100.00;99433.56;6111842;19;20546;-72
2023/09/25 03:05:58;;;;;;;6.72;3.40;;;;;;;4.70;100.00;99431.94;6110300;19;20097;-72
2023/09/25 03:07:58;;;;;;;5.18;3.53;;;;;;;4.65;100.00;99426.63;6110913;19;20007;-72
2023/09/25 03:09:59;;;;;;;4.25;3.13;;;;;;;4.60;100.00;99430.31;6109683;19;20874;-72
2023/09/25 03:11:59;;;;;;;4.97;3.33;;;;;;;4.55;100.00;99427.72;6110334;19;20007;-72
2023/09/25 03:13:59;;;;;;;5.32;3.50;;;;;;;4.55;100.00;99432.34;6110616;19;20343;-72
2023/09/25 03:16:00;;;;;;;5.00;3.53;;;;;;;4.53;100.00;99427.19;6111065;19;20477;-72
2023/09/25 03:18:00;;;;;;;4.43;3.28;;;;;;;4.55;100.00;99433.19;6109388;19;20006;-72
2023/09/25 03:20:04;;;;;;;5.53;4.07;;;;;;;4.58;100.00;99435.28;6109051;19;20003;-72
2023/09/25 03:22:05;;;;;;;5.38;3.65;;;;;;;4.54;100.00;99426.06;6109924;19;20020;-72
2023/09/25 03:24:05;;;;;;;5.65;3.53;;;;;;;4.53;100.00;99431.88;6110283;19;20007;-72
2023/09/25 03:26:17;;;;;;;5.40;3.97;;;;;;;4.51;100.00;99432.19;6110019;19;20339;-72
2023/09/25 03:28:17;;;;;;;5.18;3.50;;;;;;;4.47;100.00;99423.81;6110088;19;20010;-72
2023/09/25 03:30:17;;;;;;;6.95;3.92;;;;;;;4.46;100.00;99430.38;6108359;19;20315;-72
2023/09/25 03:32:18;;;;;;;5.13;3.95;;;;;;;4.46;100.00;99433.13;6109718;19;19999;-72
2023/09/25 03:34:20;;;;;;;4.82;3.20;;;;;;;4.45;100.00;99434.25;6109681;19;20007;-72
2023/09/25 03:36:20;;;;;;;5.13;3.95;;;;;;;4.54;100.00;99436.22;6110890;19;20010;-72
2023/09/25 03:38:20;;;;;;;7.25;3.90;;;;;;;4.50;100.00;99436.06;6110092;19;20526;-72
2023/09/25 03:40:21;;;;;;;4.47;3.45;;;;;;;4.47;100.00;99436.69;6107496;19;20114;-72
2023/09/25 03:42:21;;;;;;;5.10;3.50;;;;;;;4.43;100.00;99432.94;6110774;19;20498;-72
2023/09/25 03:44:22;;;;;;;5.93;3.80;;;;;;;4.39;100.00;99441.00;6107602;19;20469;-72
2023/09/25 03:46:22;;;;;;;7.75;3.75;;;;;;;4.38;100.00;99447.59;6109131;19;20017;-72
2023/09/25 03:48:22;;;;;;;5.03;3.70;;;;;;;4.36;100.00;99433.38;6110889;19;20090;-72
2023/09/25 03:50:22;;;;;;;6.07;3.78;;;;;;;4.36;100.00;99438.88;6100232;19;20018;-72
2023/09/25 03:52:23;;;;;;;5.18;3.60;;;;;;;4.36;100.00;99429.84;6109282;19;20002;-72
2023/09/25 03:54:24;;;;;;;10.40;3.70;;;;;;;4.35;100.00;99444.66;6109868;19;20629;-72
2023/09/25 03:56:24;;;;;;;7.97;4.15;;;;;;;4.32;100.00;99435.16;6109650;19;20011;-72
2023/09/25 03:58:24;;;;;;;5.10;4.13;;;;;;;4.26;100.00;99428.19;6108293;19;20007;-72
2023/09/25 04:00:26;;;;;;;5.18;3.83;;;;;;;4.20;100.00;99427.50;6108100;19;20015;-72
2023/09/25 04:02:27;;;;;;;6.43;3.55;;;;;;;4.19;100.00;99423.13;6109778;19;20352;-72
2023/09/25 04:04:27;;;;;;;5.75;4.03;;;;;;;4.16;100.00;99423.78;6109345;19;20038;-72
2023/09/25 04:06:27;;;;;;;4.65;3.35;;;;;;;4.16;100.00;99422.97;6109552;19;20014;-72
2023/09/25 04:08:28;;;;;;;5.15;3.30;;;;;;;4.16;100.00;99426.53;6108065;19;20010;-72
2023/09/25 04:10:28;;;;;;;8.52;3.15;;;;;;;4.11;100.00;99431.31;6107487;19;20332;-72
2023/09/25 04:12:29;;;;;;;4.43;3.33;;;;;;;4.06;100.00;99431.44;6108865;19;20505;-72
2023/09/25 04:14:32;;;;;;;4.75;3.78;;;;;;;4.00;100.00;99432.69;6109884;19;20011;-72
2023/09/25 04:16:33;;;;;;;4.47;3.17;;;;;;;3.93;100.00;99428.44;6109388;19;20031;-72
2023/09/25 04:18:33;;;;;;;5.60;3.85;;;;;;;3.93;100.00;99424.91;6108510;19;20011;-72
2023/09/25 04:20:34;;;;;;;4.70;3.22;;;;;;;3.94;100.00;99429.25;6107441;19;20011;-72
2023/09/25 04:22:37;;;;;;;5.03;3.88;;;;;;;3.95;100.00;99428.94;6109780;19;20019;-72
2023/09/25 04:24:38;;;;;;;4.60;3.13;;;;;;;3.97;100.00;99431.34;6110364;19;20425;-72
2023/09/25 04:26:41;;;;;;;8.73;3.83;;;;;;;4.02;100.00;99436.72;6108707;19;20510;-72
2023/09/25 04:28:42;;;;;;;5.00;3.80;;;;;;;4.06;100.00;99431.44;6108727;19;20014;-72
2023/09/25 04:30:43;;;;;;;8.82;4.05;;;;;;;4.11;100.00;99436.78;6107886;19;20734;-72
2023/09/25 04:32:46;;;;;;;5.55;3.35;;;;;;;4.13;100.00;99429.06;6108922;19;20010;-72
2023/09/25 04:34:47;;;;;;;4.38;3.45;;;;;;;4.07;100.00;99433.06;6109193;19;20017;-72
2023/09/25 04:36:48;;;;;;;5.70;3.55;;;;;;;3.97;100.00;99428.63;6108363;19;20015;-72
2023/09/25 04:38:49;;;;;;;3.78;3.13;;;;;;;3.95;100.00;99431.69;6107722;19;20010;-72
2023/09/25 04:40:49;;;;;;;4.55;3.40;;;;;;;3.92;100.00;99424.09;6107493;19;20021;-72
2023/09/25 04:42:50;;;;;;;3.88;3.10;;;;;;;3.91;100.00;99427.97;6107964;19;20014;-72
2023/09/25 04:44:51;;;;;;;4.82;3.55;;;;;;;3.89;100.00;99421.19;6105278;19;20034;-72
2023/09/25 04:46:51;;;;;;;4.20;3.30;;;;;;;3.84;100.00;99422.09;6108871;19;20554;-72
2023/09/25 04:48:51;;;;;;;5.20;3.50;;;;;;;3.79;100.00;99418.66;6106991;19;20353;-72
2023/09/25 04:50:52;;;;;;;7.95;3.60;;;;;;;3.69;100.00;99419.72;6100927;19;20014;-72
2023/09/25 04:52:52;;;;;;;4.18;3.45;;;;;;;3.69;100.00;99422.47;6102351;19;20006;-72
2023/09/25 04:54:52;;;;;;;5.55;3.70;;;;;;;3.80;100.00;99431.22;6100626;19;20497;-72
2023/09/25 04:56:53;;;;;;;6.35;3.45;;;;;;;3.87;100.00;99417.91;6100875;19;20066;-72
2023/09/25 04:58:53;;;;;;;5.25;3.35;;;;;;;3.91;100.00;99432.63;6098697;19;20464;-72
2023/09/25 05:00:54;;;;;;;4.32;3.17;;;;;;;3.90;100.00;99431.00;6099756;19;20014;-72
2023/09/25 05:02:56;;;;;;;6.32;4.40;;;;;;;3.86;100.00;99432.72;6100841;19;20015;-72
2023/09/25 05:04:56;;;;;;;3.95;3.20;;;;;;;3.85;100.00;99431.13;6101603;19;20007;-72
2023/09/25 05:06:56;;;;;;;6.90;3.47;;;;;;;3.82;100.00;99432.56;6101824;19;20408;-72
2023/09/25 05:08:56;;;;;;;7.18;3.20;;;;;;;3.82;100.00;99434.50;6101052;19;20390;-72
2023/09/25 05:10:58;;;;;;;5.15;3.63;;;;;;;3.77;100.00;99427.19;6100473;19;20120;-72
2023/09/25 05:12:58;;;;;;;5.45;3.80;;;;;;;3.69;100.00;99429.84;6100369;19;20277;-72
2023/09/25 05:14:59;;;;;;;5.13;4.03;;;;;;;3.66;100.00;99428.56;6101574;19;20447;-72
2023/09/25 05:17:00;;;;;;;8.95;3.92;;;;;;;3.63;100.00;99421.75;6101534;19;20015;-72
2023/09/25 05:19:00;;;;;;;5.97;3.38;;;;;;;3.66;100.00;99436.78;6099987;19;20014;-72
2023/09/25 05:21:00;;;;;;;5.68;3.15;;;;;;;3.67;100.00;99428.25;6100668;19;20007;-72
2023/09/25 05:23:01;;;;;;;4.78;3.42;;;;;;;3.69;100.00;99432.59;6101672;19;20017;-72
2023/09/25 05:25:01;;;;;;;10.30;3.58;;;;;;;3.66;100.00;99436.78;6101355;19;20031;-72
2023/09/25 05:27:01;;;;;;;6.82;2.95;;;;;;;3.74;100.00;99432.50;6102113;19;20554;-72
2023/09/25 05:29:02;;;;;;;5.93;3.35;;;;;;;3.75;100.00;99431.38;6099923;19;20066;-72
2023/09/25 05:31:02;;;;;;;7.68;3.30;;;;;;;3.78;100.00;99441.69;6099390;19;20014;-72
2023/09/25 05:33:03;;;;;;;8.07;3.90;;;;;;;3.71;100.00;99430.34;6101164;19;20037;-72
2023/09/25 05:35:04;;;;;;;6.32;3.53;;;;;;;3.70;100.00;99434.22;6101229;19;20015;-72
2023/09/25 05:37:04;;;;;;;9.70;4.03;;;;;;;3.66;100.00;99434.84;6100494;19;20036;-72
2023/09/25 05:39:06;;;;;;;5.97;3.88;;;;;;;3.67;100.00;99425.50;6100179;19;20015;-72
2023/09/25 05:41:08;;;;;;;6.03;3.95;;;;;;;3.70;100.00;99421.34;6100628;19;20012;-72
2023/09/25 05:43:09;;;;;;;7.63;3.60;;;;;;;3.70;100.00;99415.88;6099708;19;20033;-72
2023/09/25 05:45:11;;;;;;;6.85;3.53;;;;;;;3.68;100.00;99418.09;6097820;19;20006;-72
2023/09/25 05:47:12;;;;;;;5.10;3.75;;;;;;;3.75;100.00;99421.22;6100483;19;20034;-72
2023/09/25 05:49:12;;;;;;;8.80;3.97;;;;;;;3.83;100.00;99427.88;6097431;19;20011;-72
2023/09/25 05:51:12;;;;;;;12.40;4.05;;;;;;;3.87;100.00;99432.41;6107184;19;20258;-72
2023/09/25 05:53:14;;;;;;;5.00;3.63;;;;;;;3.92;100.00;99428.75;6107703;19;20017;-72
2023/09/25 05:55:14;;;;;;;7.22;3.65;;;;;;;4.00;100.00;99435.41;6107944;19;20018;-72
2023/09/25 05:57:15;;;;;;;5.85;3.97;;;;;;;4.06;100.00;99429.50;6106280;19;20007;-72
2023/09/25 05:59:16;;;;;;;9.98;4.88;;;;;;;4.11;100.00;99429.38;6104860;19;20010;-72
2023/09/25 06:01:16;;;;;;;7.18;4.00;;;;;;;4.12;100.00;99419.22;6107210;19;20022;-72
2023/09/25 06:03:16;;;;;;;7.10;4.40;;;;;;;4.11;100.00;99423.91;6108061;19;20009;-72
2023/09/25 06:05:17;;;;;;;9.15;4.47;;;;;;;4.15;100.00;99418.63;6107215;19;20086;-72
2023/09/25 06:07:18;;;;;;;8.15;5.13;;;;;;;4.18;100.00;99420.72;6106898;19;20015;-72
2023/09/25 06:09:19;;;;;;;12.00;5.57;;;;;;;4.23;100.00;99415.94;6105996;19;20007;-72
2023/09/25 06:11:19;;;;;;;14.05;6.13;;;;;;;4.35;100.00;99417.28;6106550;19;20006;-72
2023/09/25 06:13:19;;;;;;;11.65;5.10;;;;;;;4.41;100.00;99421.50;6106959;19;20022;-72
2023/09/25 06:15:23;;;;;;;10.18;5.85;;;;;;;4.47;100.00;99426.53;6107107;19;20322;-72
2023/09/25 06:17:26;;;;;;;6.93;4.57;;;;;;;4.55;100.00;99433.19;6103763;19;20003;-72
2023/09/25 06:19:26;;;;;;;7.55;4.70;;;;;;;4.61;100.00;99423.69;6104225;19;20010;-72
2023/09/25 06:21:27;;;;;;;7.00;4.65;;;;;;;4.70;100.00;99420.97;6105568;19;20017;-72
2023/09/25 06:23:27;;;;;;;7.90;5.05;;;;;;;4.78;100.00;99418.28;6105868;19;20017;-72
2023/09/25 06:25:29;;;;;;;7.05;4.28;;;;;;;4.84;100.00;99420.88;6109837;19;20014;-72
2023/09/25 06:27:30;;;;;;;6.05;4.47;;;;;;;4.91;100.00;99419.31;6112135;19;20486;-72
2023/09/25 06:29:31;;;;;;;8.57;4.43;;;;;;;4.96;100.00;99413.66;6109549;19;20019;-72
2023/09/25 06:31:31;;;;;;;8.35;4.43;;;;;;;5.01;100.00;99423.69;6112161;19;20518;-72
2023/09/25 06:33:31;;;;;;;5.88;4.50;;;;;;;5.06;100.00;99404.34;6111405;19;20039;-72
2023/09/25 06:35:33;;;;;;;8.07;4.65;;;;;;;5.11;100.00;99404.19;6111267;19;20003;-72
2023/09/25 06:37:34;;;;;;;8.07;4.63;;;;;;;5.17;100.00;99416.63;6111495;19;20413;-72
2023/09/25 06:39:34;;;;;;;7.30;4.53;;;;;;;5.23;100.00;99406.31;6110101;19;20006;-72
2023/09/25 06:41:38;;;;;;;8.73;4.82;;;;;;;5.29;100.00;99408.56;6109998;19;20339;-72
2023/09/25 06:43:39;;;;;;;5.82;4.10;;;;;;;5.38;100.00;99405.03;6111111;19;20289;-72
2023/09/25 06:45:41;;;;;;;7.72;4.78;;;;;;;5.43;100.00;99410.38;6108998;19;20374;-72
2023/09/25 06:47:42;;;;;;;12.15;6.13;;;;;;;5.51;100.00;99407.63;6110731;19;20011;-72
2023/09/25 06:49:42;;;;;;;5.65;4.65;;;;;;;5.57;100.00;99409.09;6109099;19;20090;-72
2023/09/25 06:51:43;;;;;;;7.88;4.38;;;;;;;5.63;100.00;99415.25;6110487;19;20352;-72
2023/09/25 06:53:43;;;;;;;6.20;4.20;;;;;;;5.70;100.00;99412.00;6111388;19;20014;-72
2023/09/25 06:55:44;;;;;;;6.70;5.00;;;;;;;5.75;100.00;99411.84;6110602;19;20030;-72
2023/09/25 06:57:45;;;;;;;10.18;5.30;;;;;;;5.86;100.00;99407.63;6110408;19;20145;-72
2023/09/25 06:59:46;;;;;;;6.95;4.95;;;;;;;5.90;100.00;99403.97;6109054;19;20051;-72
2023/09/25 07:01:47;;;;;;;11.93;6.50;;;;;;;6.00;100.00;99400.06;6110318;19;20038;-72
2023/09/25 07:03:47;;;;;;;9.23;4.72;;;;;;;6.08;100.00;99406.69;6110420;19;20337;-72
2023/09/25 07:05:48;;;;;;;8.50;5.22;;;;;;;6.14;100.00;99410.88;6109800;19;20086;-72
2023/09/25 07:07:50;;;;;;;11.88;5.90;;;;;;;6.21;100.00;99413.94;6110359;19;20017;-72
2023/09/25 07:09:52;;;;;;;9.20;5.50;;;;;;;6.28;100.00;99411.47;6107807;19;20034;-72
2023/09/25 07:11:53;;;;;;;7.57;5.68;;;;;;;6.40;100.00;99406.13;6110553;19;20342;-72
2023/09/25 07:13:53;;;;;;;10.75;5.50;;;;;;;6.50;100.00;99404.97;6110427;19;20037;-72
2023/09/25 07:16:04;;;;;;;14.10;6.35;;;;;;;6.69;100.00;99410.06;6109842;19;20010;-72
2023/09/25 07:18:05;;;;;;;7.55;5.85;;;;;;;6.82;100.00;99411.81;6109715;19;20377;-72
2023/09/25 07:20:06;;;;;;;8.48;6.07;;;;;;;6.90;100.00;99413.72;6108310;19;20020;-72
2023/09/25 07:22:06;;;;;;;7.22;5.93;;;;;;;6.99;100.00;99410.91;6108577;19;20026;-73
2023/09/25 07:24:07;;;;;;;11.30;5.70;;;;;;;7.07;100.00;99412.81;6110121;19;20394;-72
2023/09/25 07:26:09;;;;;;;6.80;5.25;;;;;;;7.16;100.00;99415.53;6110846;19;20014;-72
2023/09/25 07:28:11;;;;;;;8.77;5.93;;;;;;;7.21;100.00;99410.63;6110429;19;20026;-73
2023/09/25 07:30:12;;;;;;;6.35;5.20;;;;;;;7.30;100.00;99408.63;6108685;19;20006;-73
2023/09/25 07:32:14;;;;;;;7.00;5.47;;;;;;;7.41;100.00;99417.31;6109351;19;20035;-72
2023/09/25 07:34:14;;;;;;;14.65;6.15;;;;;;;7.52;100.00;99415.75;6110746;19;20007;-72
2023/09/25 07:36:18;;;;;;;14.80;7.10;;;;;;;7.71;100.00;99411.75;6108981;19;20036;-72
2023/09/25 07:38:18;;;;;;;8.30;6.13;;;;;;;7.80;100.00;99412.50;6109270;19;20018;-72
2023/09/25 07:40:19;;;;;;;7.63;5.90;;;;;;;7.89;100.00;99421.47;6106251;19;19999;-72
2023/09/25 07:42:20;;;;;;;9.65;5.10;;;;;;;8.00;100.00;99424.63;6110158;19;20034;-72
2023/09/25 07:44:25;;;;;;;7.85;5.68;;;;;;;8.11;100.00;99428.59;6107699;19;20010;-72
2023/09/25 07:46:26;;;;;;;8.05;5.65;;;;;;;8.24;100.00;99424.72;6109951;19;20046;-72
2023/09/25 07:48:26;;;;;;;6.50;5.07;;;;;;;8.40;100.00;99422.16;6109005;19;20043;-72
2023/09/25 07:50:27;;;;;;;9.73;5.68;;;;;;;8.53;100.00;99428.53;6109466;19;20014;-72
2023/09/25 07:52:27;;;;;;;6.75;4.63;;;;;;;8.62;100.00;99418.19;6110111;19;20078;-72
2023/09/25 07:54:28;;;;;;;7.72;5.05;;;;;;;8.82;100.00;99419.25;6108875;19;20038;-72
2023/09/25 07:56:30;;;;;;;8.10;5.47;;;;;;;8.97;100.00;99422.13;6109851;19;20006;-72
2023/09/25 07:58:30;;;;;;;6.43;4.55;;;;;;;9.10;100.00;99425.72;6109676;19;20006;-73
2023/09/25 08:00:39;;;;;;;7.43;4.95;;;;;;;9.22;100.00;99424.91;6107056;19;20009;-72
2023/09/25 08:02:47;;;;;;;5.88;5.03;;;;;;;9.34;100.00;99419.34;6109958;19;20446;-72
2023/09/25 08:04:48;;;;;;;5.07;4.10;;;;;;;9.53;100.00;99416.81;6109216;19;20534;-73
2023/09/25 08:06:48;;;;;;;8.95;5.03;;;;;;;9.66;100.00;99419.53;6109272;19;20442;-73
2023/09/25 08:08:49;;;;;;;8.65;4.53;;;;;;;9.76;100.00;99422.66;6108711;19;20267;-72
2023/09/25 08:10:49;;;;;;;5.43;4.53;;;;;;;9.85;100.00;99426.06;6107508;19;20011;-73
2023/09/25 08:12:49;;;;;;;6.30;4.15;;;;;;;9.95;100.00;99415.66;6109087;19;20024;-72
2023/09/25 08:14:50;;;;;;;4.90;4.18;;;;;;;10.06;100.00;99425.06;6108739;19;20015;-73
2023/09/25 08:16:51;;;;;;;9.77;6.00;;;;;;;10.20;100.00;99427.44;6108574;19;20070;-72
2023/09/25 08:18:51;;;;;;;5.95;4.60;;;;;;;10.31;100.00;99425.78;6108622;19;20007;-73
2023/09/25 08:20:51;;;;;;;10.82;4.63;;;;;;;10.46;100.00;99429.75;6107785;19;20036;-73
2023/09/25 08:22:53;;;;;;;7.38;4.45;;;;;;;10.58;100.00;99430.47;6108372;19;20011;-73
2023/09/25 08:24:54;;;;;;;6.15;4.70;;;;;;;10.68;100.00;99423.63;6108933;19;20338;-73
2023/09/25 08:26:57;;;;;;;6.00;4.68;;;;;;;10.78;100.00;99430.59;6108852;19;20015;-73
2023/09/25 08:28:57;;;;;;;5.93;4.63;;;;;;;10.85;100.00;99428.03;6108407;19;20011;-72
2023/09/25 08:30:58;;;;;;;6.95;4.53;;;;;;;10.91;100.00;99423.81;6107458;19;20049;-73
2023/09/25 08:32:58;;;;;;;5.05;4.53;;;;;;;11.03;100.00;99420.16;6108153;19;20011;-73
2023/09/25 08:34:59;;;;;;;5.55;4.57;;;;;;;11.13;100.00;99427.91;6107911;19;20011;-73
2023/09/25 08:37:00;;;;;;;4.72;3.92;;;;;;;11.27;100.00;99414.41;6109109;19;20003;-73
2023/09/25 08:39:00;;;;;;;4.72;4.20;;;;;;;11.42;100.00;99421.06;6107626;19;20014;-73
2023/09/25 08:41:01;;;;;;;5.25;4.13;;;;;;;11.57;100.00;99417.47;6106700;19;20015;-73
2023/09/25 08:43:01;;;;;;;5.93;4.10;;;;;;;11.70;100.00;99415.38;6108894;19;20017;-73
2023/09/25 08:45:03;;;;;;;5.28;3.50;;;;;;;11.81;100.00;99410.88;6105662;19;20040;-73
2023/09/25 08:47:03;;;;;;;6.80;4.03;;;;;;;11.98;100.00;99416.00;6105722;19;20481;-73
2023/09/25 08:49:04;;;;;;;5.90;3.90;;;;;;;12.13;100.00;99413.53;6108444;19;20240;-73
2023/09/25 08:51:05;;;;;;;7.38;4.18;;;;;;;12.15;100.00;99412.00;6097337;19;20010;-73
2023/09/25 08:53:08;;;;;;;5.90;3.95;;;;;;;12.23;100.00;99416.50;6107978;19;20015;-73
2023/09/25 08:55:08;;;;;;;4.80;3.97;;;;;;;12.27;100.00;99417.41;6107906;19;20035;-73
2023/09/25 08:57:10;;;;;;;6.20;3.80;;;;;;;12.38;100.00;99415.63;6104309;19;20010;-73
2023/09/25 08:59:11;;;;;;;4.20;3.50;;;;;;;12.57;100.00;99412.00;6106919;19;20010;-73
2023/09/25 09:01:11;;;;;;;10.40;3.88;;;;;;;12.70;100.00;99407.09;6106337;19;20040;-73
2023/09/25 09:03:12;;;;;;;4.28;3.88;;;;;;;12.82;100.00;99418.00;6107287;19;20011;-73
2023/09/25 09:05:16;;;;;;;4.70;3.47;;;;;;;12.91;100.00;99410.25;6107321;19;20079;-73
2023/09/25 09:07:17;;;;;;;5.65;3.35;;;;;;;12.98;100.00;99414.28;6108580;19;20006;-73
2023/09/25 09:09:17;;;;;;;4.85;3.55;;;;;;;13.14;100.00;99403.84;6106519;19;20419;-73
2023/09/25 09:11:19;;;;;;;6.28;3.65;;;;;;;13.24;100.00;99408.00;6107920;19;20095;-73
2023/09/25 09:13:23;;;;;;;5.50;3.33;;;;;;;13.31;100.00;99402.56;6108235;19;20008;-73
2023/09/25 09:15:28;;;;;;;7.65;3.50;;;;;;;13.36;100.00;99410.59;6107886;19;20009;-73
2023/09/25 09:17:29;;;;;;;4.97;3.50;;;;;;;13.41;100.00;99413.06;6107568;19;20118;-73
2023/09/25 09:19:35;;;;;;;7.03;3.45;;;;;;;13.44;100.00;99404.75;6106423;19;20014;-73
2023/09/25 09:21:36;;;;;;;3.65;3.28;;;;;;;13.48;100.00;99408.38;6106394;19;20364;-73
2023/09/25 09:23:40;;;;;;;3.83;3.08;;;;;;;13.58;100.00;99412.50;6107865;19;20021;-73
2023/09/25 09:25:48;;;;;;;3.65;2.95;;;;;;;13.75;100.00;99408.38;6106290;19;20006;-73
2023/09/25 09:27:48;;;;;;;3.67;2.92;;;;;;;14.02;100.00;99397.97;6106837;19;19998;-73